sensor_id;sensor_type;location;lat;lon;timestamp;pressure;altitude;pressure_sealevel;temperature;humidity
17383;BME280;8809;51.892;8.384;2023-08-21T00:00:31;101288.28;;;19.78;100.00
17383;BME280;8809;51.892;8.384;2023-08-21T00:02:58;101290.03;;;19.76;100.00
17383;BME280;8809;51.892;8.384;2023-08-21T00:05:25;101286.44;;;19.72;100.00
17383;BME280;8809;51.892;8.384;2023-08-21T00:07:53;101286.44;;;19.72;100.00
17383;BME280;8809;51.892;8.384;2023-08-21T00:10:20;101282.91;;;19.70;100.00
17383;BME280;8809;51.892;8.384;2023-08-21T00:12:48;101286.38;;;19.68;100.00
17383;BME280;8809;51.892;8.384;2023-08-21T00:15:17;101281.06;;;19.66;100.00
17383;BME280;8809;51.892;8.384;2023-08-21T00:17:44;101292.50;;;19.65;100.00
17383;BME280;8809;51.892;8.384;2023-08-21T00:20:11;101291.59;;;19.63;100.00
17383;BME280;8809;51.892;8.384;2023-08-21T00:22:39;101284.50;;;19.60;100.00
17383;BME280;8809;51.892;8.384;2023-08-21T00:25:07;101282.66;;;19.56;100.00
17383;BME280;8809;51.892;8.384;2023-08-21T00:27:34;101277.31;;;19.53;100.00
17383;BME280;8809;51.892;8.384;2023-08-21T00:30:03;101283.47;;;19.52;100.00
17383;BME280;8809;51.892;8.384;2023-08-21T00:32:33;101281.69;;;19.50;100.00
17383;BME280;8809;51.892;8.384;2023-08-21T00:35:02;101281.59;;;19.47;100.00
17383;BME280;8809;51.892;8.384;2023-08-21T00:37:30;101279.78;;;19.44;100.00
17383;BME280;8809;51.892;8.384;2023-08-21T00:40:00;101283.25;;;19.42;100.00
17383;BME280;8809;51.892;8.384;2023-08-21T00:42:27;101284.16;;;19.41;100.00
17383;BME280;8809;51.892;8.384;2023-08-21T00:44:55;101284.13;;;19.39;100.00
17383;BME280;8809;51.892;8.384;2023-08-21T00:47:24;101278.75;;;19.36;100.00
17383;BME280;8809;51.892;8.384;2023-08-21T00:49:51;101280.50;;;19.34;100.00
17383;BME280;8809;51.892;8.384;2023-08-21T00:52:19;101280.47;;;19.31;100.00
17383;BME280;8809;51.892;8.384;2023-08-21T00:54:46;101273.34;;;19.28;100.00
17383;BME280;8809;51.892;8.384;2023-08-21T00:57:14;101278.59;;;19.25;100.00
17383;BME280;8809;51.892;8.384;2023-08-21T00:59:41;101274.13;;;19.23;100.00
17383;BME280;8809;51.892;8.384;2023-08-21T01:02:09;101285.56;;;19.20;100.00
17383;BME280;8809;51.892;8.384;2023-08-21T01:04:39;101294.28;;;19.16;100.00
17383;BME280;8809;51.892;8.384;2023-08-21T01:07:05;101294.25;;;19.15;100.00
17383;BME280;8809;51.892;8.384;2023-08-21T01:09:39;101297.75;;;19.11;100.00
17383;BME280;8809;51.892;8.384;2023-08-21T01:12:15;101295.03;;;19.08;100.00
17383;BME280;8809;51.892;8.384;2023-08-21T01:14:50;101296.81;;;19.09;100.00
17383;BME280;8809;51.892;8.384;2023-08-21T01:17:18;101291.47;;;19.06;100.00
17383;BME280;8809;51.892;8.384;2023-08-21T01:19:48;101287.06;;;19.06;100.00
17383;BME280;8809;51.892;8.384;2023-08-21T01:22:17;101283.53;;;19.06;100.00
17383;BME280;8809;51.892;8.384;2023-08-21T01:24:45;101287.03;;;19.05;100.00
17383;BME280;8809;51.892;8.384;2023-08-21T01:27:13;101296.72;;;19.04;100.00
17383;BME280;8809;51.892;8.384;2023-08-21T01:29:41;101311.69;;;19.04;100.00
17383;BME280;8809;51.892;8.384;2023-08-21T01:32:15;101305.53;;;19.05;100.00
17383;BME280;8809;51.892;8.384;2023-08-21T01:34:46;101310.78;;;19.03;100.00
17383;BME280;8809;51.892;8.384;2023-08-21T01:37:14;101297.56;;;19.02;100.00
17383;BME280;8809;51.892;8.384;2023-08-21T01:39:42;101288.75;;;19.01;100.00
17383;BME280;8809;51.892;8.384;2023-08-21T01:42:11;101285.25;;;19.04;100.00
17383;BME280;8809;51.892;8.384;2023-08-21T01:44:38;101278.19;;;19.04;100.00
17383;BME280;8809;51.892;8.384;2023-08-21T01:47:06;101280.84;;;19.03;100.00
17383;BME280;8809;51.892;8.384;2023-08-21T01:49:34;101283.50;;;19.03;100.00
17383;BME280;8809;51.892;8.384;2023-08-21T01:52:01;101290.53;;;19.02;100.00
17383;BME280;8809;51.892;8.384;2023-08-21T01:54:28;101300.22;;;19.02;100.00
17383;BME280;8809;51.892;8.384;2023-08-21T01:56:55;101300.22;;;19.02;100.00
17383;BME280;8809;51.892;8.384;2023-08-21T01:59:24;101294.94;;;19.02;100.00
17383;BME280;8809;51.892;8.384;2023-08-21T02:01:51;101291.38;;;19.01;100.00
17383;BME280;8809;51.892;8.384;2023-08-21T02:04:19;101288.72;;;19.00;100.00
17383;BME280;8809;51.892;8.384;2023-08-21T02:06:46;101296.66;;;19.00;100.00
17383;BME280;8809;51.892;8.384;2023-08-21T02:09:14;101292.22;;;18.99;100.00
17383;BME280;8809;51.892;8.384;2023-08-21T02:11:41;101297.47;;;18.97;100.00
17383;BME280;8809;51.892;8.384;2023-08-21T02:14:08;101292.16;;;18.96;100.00
17383;BME280;8809;51.892;8.384;2023-08-21T02:16:37;101288.56;;;18.94;100.00
17383;BME280;8809;51.892;8.384;2023-08-21T02:19:04;101293.84;;;18.90;100.00
17383;BME280;8809;51.892;8.384;2023-08-21T02:21:31;101283.22;;;18.89;100.00
17383;BME280;8809;51.892;8.384;2023-08-21T02:23:59;101286.72;;;18.88;100.00
17383;BME280;8809;51.892;8.384;2023-08-21T02:26:27;101292.91;;;18.88;100.00
17383;BME280;8809;51.892;8.384;2023-08-21T02:28:54;101283.19;;;18.87;100.00
17383;BME280;8809;51.892;8.384;2023-08-21T02:31:21;101281.44;;;18.88;100.00
17383;BME280;8809;51.892;8.384;2023-08-21T02:33:51;101283.22;;;18.89;100.00
17383;BME280;8809;51.892;8.384;2023-08-21T02:36:18;101283.19;;;18.87;100.00
17383;BME280;8809;51.892;8.384;2023-08-21T02:38:45;101292.03;;;18.89;100.00
17383;BME280;8809;51.892;8.384;2023-08-21T02:41:13;101293.84;;;18.90;100.00
17383;BME280;8809;51.892;8.384;2023-08-21T02:43:40;101284.16;;;18.91;100.00
17383;BME280;8809;51.892;8.384;2023-08-21T02:46:07;101288.56;;;18.92;100.00
17383;BME280;8809;51.892;8.384;2023-08-21T02:48:34;101283.28;;;18.94;100.00
17383;BME280;8809;51.892;8.384;2023-08-21T02:51:03;101293.88;;;18.94;100.00
17383;BME280;8809;51.892;8.384;2023-08-21T02:53:30;101299.16;;;18.94;100.00
17383;BME280;8809;51.892;8.384;2023-08-21T02:55:57;101304.47;;;18.95;100.00
17383;BME280;8809;51.892;8.384;2023-08-21T02:58:25;101302.72;;;18.96;100.00
17383;BME280;8809;51.892;8.384;2023-08-21T03:00:52;101290.41;;;18.96;100.00
17383;BME280;8809;51.892;8.384;2023-08-21T03:03:19;101288.66;;;18.97;100.00
17383;BME280;8809;51.892;8.384;2023-08-21T03:05:47;101301.03;;;18.99;100.00
17383;BME280;8809;51.892;8.384;2023-08-21T03:08:15;101295.75;;;18.99;100.00
17383;BME280;8809;51.892;8.384;2023-08-21T03:10:43;101291.34;;;19.00;100.00
17383;BME280;8809;51.892;8.384;2023-08-21T03:13:10;101293.09;;;18.99;100.00
17383;BME280;8809;51.892;8.384;2023-08-21T03:15:37;101299.28;;;19.00;100.00
17383;BME280;8809;51.892;8.384;2023-08-21T03:18:05;101299.28;;;19.00;100.00
17383;BME280;8809;51.892;8.384;2023-08-21T03:20:32;101307.22;;;19.00;100.00
17383;BME280;8809;51.892;8.384;2023-08-21T03:22:59;101298.41;;;18.99;100.00
17383;BME280;8809;51.892;8.384;2023-08-21T03:25:28;101286.06;;;19.00;100.00
17383;BME280;8809;51.892;8.384;2023-08-21T03:27:56;101286.94;;;18.99;100.00
17383;BME280;8809;51.892;8.384;2023-08-21T03:30:23;101277.22;;;18.98;100.00
17383;BME280;8809;51.892;8.384;2023-08-21T03:32:50;101271.00;;;18.96;100.00
17383;BME280;8809;51.892;8.384;2023-08-21T03:35:17;101271.84;;;18.95;100.00
17383;BME280;8809;51.892;8.384;2023-08-21T03:37:44;101270.97;;;18.93;100.00
17383;BME280;8809;51.892;8.384;2023-08-21T03:40:13;101265.63;;;18.91;100.00
17383;BME280;8809;51.892;8.384;2023-08-21T03:42:42;101270.91;;;18.89;100.00
17383;BME280;8809;51.892;8.384;2023-08-21T03:45:10;101277.91;;;18.87;100.00
17383;BME280;8809;51.892;8.384;2023-08-21T03:47:37;101273.47;;;18.86;100.00
17383;BME280;8809;51.892;8.384;2023-08-21T03:50:05;101273.44;;;18.83;100.00
17383;BME280;8809;51.892;8.384;2023-08-21T03:52:32;101269.00;;;18.82;100.00
17383;BME280;8809;51.892;8.384;2023-08-21T03:55:00;101268.09;;;18.80;100.00
17383;BME280;8809;51.892;8.384;2023-08-21T03:57:27;101267.16;;;18.78;100.00
17383;BME280;8809;51.892;8.384;2023-08-21T03:59:55;101275.06;;;18.77;100.00
17383;BME280;8809;51.892;8.384;2023-08-21T04:02:23;101277.66;;;18.75;100.00
17383;BME280;8809;51.892;8.384;2023-08-21T04:04:50;101282.06;;;18.73;100.00
17383;BME280;8809;51.892;8.384;2023-08-21T04:07:18;101282.91;;;18.72;100.00
17383;BME280;8809;51.892;8.384;2023-08-21T04:09:45;101283.78;;;18.71;100.00
17383;BME280;8809;51.892;8.384;2023-08-21T04:12:12;101278.47;;;18.71;100.00
17383;BME280;8809;51.892;8.384;2023-08-21T04:14:39;101284.63;;;18.70;100.00
17383;BME280;8809;51.892;8.384;2023-08-21T04:17:08;101281.97;;;18.70;100.00
17383;BME280;8809;51.892;8.384;2023-08-21T04:19:35;101297.00;;;18.71;100.00
17383;BME280;8809;51.892;8.384;2023-08-21T04:22:02;101295.19;;;18.70;100.00
17383;BME280;8809;51.892;8.384;2023-08-21T04:24:30;101300.50;;;18.70;100.00
17383;BME280;8809;51.892;8.384;2023-08-21T04:26:57;101302.25;;;18.70;100.00
17383;BME280;8809;51.892;8.384;2023-08-21T04:29:24;101306.66;;;18.71;100.00
17383;BME280;8809;51.892;8.384;2023-08-21T04:31:51;101306.66;;;18.71;100.00
17383;BME280;8809;51.892;8.384;2023-08-21T04:34:20;101297.00;;;18.71;100.00
17383;BME280;8809;51.892;8.384;2023-08-21T04:36:47;101306.72;;;18.74;100.00
17383;BME280;8809;51.892;8.384;2023-08-21T04:39:15;101307.59;;;18.73;100.00
17383;BME280;8809;51.892;8.384;2023-08-21T04:41:42;101312.91;;;18.76;100.00
17383;BME280;8809;51.892;8.384;2023-08-21T04:44:09;101311.16;;;18.76;100.00
17383;BME280;8809;51.892;8.384;2023-08-21T04:46:36;101319.13;;;18.78;100.00
17383;BME280;8809;51.892;8.384;2023-08-21T04:49:03;101320.91;;;18.79;100.00
17383;BME280;8809;51.892;8.384;2023-08-21T04:51:32;101316.53;;;18.79;100.00
17383;BME280;8809;51.892;8.384;2023-08-21T04:54:00;101309.50;;;18.80;100.00
17383;BME280;8809;51.892;8.384;2023-08-21T04:56:27;101298.94;;;18.81;100.00
17383;BME280;8809;51.892;8.384;2023-08-21T04:58:58;101286.66;;;18.83;100.00
17383;BME280;8809;51.892;8.384;2023-08-21T05:01:25;101285.75;;;18.83;100.00
17383;BME280;8809;51.892;8.384;2023-08-21T05:03:52;101289.31;;;18.83;100.00
17383;BME280;8809;51.892;8.384;2023-08-21T05:06:20;101293.72;;;18.86;100.00
17383;BME280;8809;51.892;8.384;2023-08-21T05:08:49;101306.09;;;18.87;100.00
17383;BME280;8809;51.892;8.384;2023-08-21T05:11:16;101314.91;;;18.87;100.00
17383;BME280;8809;51.892;8.384;2023-08-21T05:13:43;101312.28;;;18.87;100.00
17383;BME280;8809;51.892;8.384;2023-08-21T05:16:10;101316.75;;;18.90;100.00
17383;BME280;8809;51.892;8.384;2023-08-21T05:18:37;101335.28;;;18.92;100.00
17383;BME280;8809;51.892;8.384;2023-08-21T05:21:04;101336.19;;;18.94;100.00
17383;BME280;8809;51.892;8.384;2023-08-21T05:23:32;101328.28;;;18.95;100.00
17383;BME280;8809;51.892;8.384;2023-08-21T05:26:00;101297.50;;;18.99;100.00
17383;BME280;8809;51.892;8.384;2023-08-21T05:28:30;101278.13;;;19.00;100.00
17383;BME280;8809;51.892;8.384;2023-08-21T05:30:57;101286.06;;;19.00;100.00
17383;BME280;8809;51.892;8.384;2023-08-21T05:33:26;101309.88;;;19.00;100.00
17383;BME280;8809;51.892;8.384;2023-08-21T05:35:53;101306.38;;;19.01;100.00
17383;BME280;8809;51.892;8.384;2023-08-21T05:38:23;101305.50;;;19.02;100.00
17383;BME280;8809;51.892;8.384;2023-08-21T05:40:50;101304.66;;;19.03;100.00
17383;BME280;8809;51.892;8.384;2023-08-21T05:43:19;101312.63;;;19.06;100.00
17383;BME280;8809;51.892;8.384;2023-08-21T05:45:46;101317.97;;;19.09;100.00
17383;BME280;8809;51.892;8.384;2023-08-21T05:48:14;101323.31;;;19.13;100.00
17383;BME280;8809;51.892;8.384;2023-08-21T05:50:44;101321.66;;;19.18;100.00
17383;BME280;8809;51.892;8.384;2023-08-21T05:53:11;101320.00;;;19.23;100.00
17383;BME280;8809;51.892;8.384;2023-08-21T05:55:38;101328.03;;;19.28;100.00
17383;BME280;8809;51.892;8.384;2023-08-21T05:58:06;101328.09;;;19.31;100.00
17383;BME280;8809;51.892;8.384;2023-08-21T06:00:35;101327.25;;;19.35;100.00
17383;BME280;8809;51.892;8.384;2023-08-21T06:03:03;101326.50;;;19.41;100.00
17383;BME280;8809;51.892;8.384;2023-08-21T06:05:30;101331.84;;;19.45;100.00
17383;BME280;8809;51.892;8.384;2023-08-21T06:07:57;101323.13;;;19.49;100.00
17383;BME280;8809;51.892;8.384;2023-08-21T06:10:24;101320.53;;;19.52;100.00
17383;BME280;8809;51.892;8.384;2023-08-21T06:12:54;101318.84;;;19.57;100.00
17383;BME280;8809;51.892;8.384;2023-08-21T06:15:21;101325.09;;;19.62;100.00
17383;BME280;8809;51.892;8.384;2023-08-21T06:17:50;101328.72;;;19.68;100.00
17383;BME280;8809;51.892;8.384;2023-08-21T06:20:17;101328.78;;;19.72;100.00
17383;BME280;8809;51.892;8.384;2023-08-21T06:22:46;101323.63;;;19.80;100.00
17383;BME280;8809;51.892;8.384;2023-08-21T06:25:13;101316.63;;;19.85;100.00
17383;BME280;8809;51.892;8.384;2023-08-21T06:27:40;101327.31;;;19.91;100.00
17383;BME280;8809;51.892;8.384;2023-08-21T06:30:08;101320.31;;;19.94;100.00
17383;BME280;8809;51.892;8.384;2023-08-21T06:32:36;101331.00;;;19.99;100.00
17383;BME280;8809;51.892;8.384;2023-08-21T06:35:06;101327.47;;;20.01;100.00
17383;BME280;8809;51.892;8.384;2023-08-21T06:37:36;101335.50;;;20.06;100.00
17383;BME280;8809;51.892;8.384;2023-08-21T06:40:04;101336.41;;;20.07;100.00
17383;BME280;8809;51.892;8.384;2023-08-21T06:42:32;101339.09;;;20.11;100.00
17383;BME280;8809;51.892;8.384;2023-08-21T06:44:59;101342.66;;;20.13;100.00
17383;BME280;8809;51.892;8.384;2023-08-21T06:47:27;101341.00;;;20.21;100.00
17383;BME280;8809;51.892;8.384;2023-08-21T06:49:56;101340.19;;;20.25;100.00
17383;BME280;8809;51.892;8.384;2023-08-21T06:52:25;101339.41;;;20.32;100.00
17383;BME280;8809;51.892;8.384;2023-08-21T06:54:52;101334.25;;;20.40;100.00
17383;BME280;8809;51.892;8.384;2023-08-21T06:57:19;101333.41;;;20.44;100.00
17383;BME280;8809;51.892;8.384;2023-08-21T06:59:47;101329.91;;;20.48;100.00
17383;BME280;8809;51.892;8.384;2023-08-21T07:02:15;101338.84;;;20.53;100.00
17383;BME280;8809;51.892;8.384;2023-08-21T07:04:42;101337.16;;;20.60;100.00
17383;BME280;8809;51.892;8.384;2023-08-21T07:07:09;101349.59;;;20.67;100.00
17383;BME280;8809;51.892;8.384;2023-08-21T07:09:38;101347.91;;;20.72;100.00
17383;BME280;8809;51.892;8.384;2023-08-21T07:12:09;101353.25;;;20.75;100.00
17383;BME280;8809;51.892;8.384;2023-08-21T07:14:36;101354.25;;;20.83;100.00
17383;BME280;8809;51.892;8.384;2023-08-21T07:17:03;101351.66;;;20.89;100.00
17383;BME280;8809;51.892;8.384;2023-08-21T07:19:31;101349.94;;;20.96;100.00
17383;BME280;8809;51.892;8.384;2023-08-21T07:21:58;101346.50;;;21.01;100.00
17383;BME280;8809;51.892;8.384;2023-08-21T07:24:25;101354.47;;;21.06;100.00
17383;BME280;8809;51.892;8.384;2023-08-21T07:26:54;101349.22;;;21.10;100.00
17383;BME280;8809;51.892;8.384;2023-08-21T07:29:21;101358.13;;;21.16;100.00
17383;BME280;8809;51.892;8.384;2023-08-21T07:31:50;101349.41;;;21.23;100.00
17383;BME280;8809;51.892;8.384;2023-08-21T07:34:17;101350.31;;;21.26;100.00
17383;BME280;8809;51.892;8.384;2023-08-21T07:36:45;101355.69;;;21.31;100.00
17383;BME280;8809;51.892;8.384;2023-08-21T07:39:12;101351.28;;;21.33;100.00
17383;BME280;8809;51.892;8.384;2023-08-21T07:41:40;101360.13;;;21.36;100.00
17383;BME280;8809;51.892;8.384;2023-08-21T07:44:09;101362.84;;;21.41;100.00
17383;BME280;8809;51.892;8.384;2023-08-21T07:46:36;101358.44;;;21.44;100.00
17383;BME280;8809;51.892;8.384;2023-08-21T07:49:03;101362.03;;;21.48;100.00
17383;BME280;8809;51.892;8.384;2023-08-21T07:51:31;101355.88;;;21.54;100.00
17383;BME280;8809;51.892;8.384;2023-08-21T07:54:01;101357.69;;;21.58;100.00
17383;BME280;8809;51.892;8.384;2023-08-21T07:56:28;101363.03;;;21.64;100.00
17383;BME280;8809;51.892;8.384;2023-08-21T07:58:56;101363.09;;;21.68;100.00
17383;BME280;8809;51.892;8.384;2023-08-21T08:01:24;101362.25;;;21.74;100.00
17383;BME280;8809;51.892;8.384;2023-08-21T08:03:52;101368.50;;;21.80;100.00
17383;BME280;8809;51.892;8.384;2023-08-21T08:06:20;101360.59;;;21.87;100.00
17383;BME280;8809;51.892;8.384;2023-08-21T08:08:47;101360.63;;;21.93;100.00
17383;BME280;8809;51.892;8.384;2023-08-21T08:11:15;101364.25;;;21.99;100.00
17383;BME280;8809;51.892;8.384;2023-08-21T08:13:42;101360.75;;;22.06;100.00
17383;BME280;8809;51.892;8.384;2023-08-21T08:16:10;101357.25;;;22.13;100.00
17383;BME280;8809;51.892;8.384;2023-08-21T08:18:39;101363.53;;;22.23;100.00
17383;BME280;8809;51.892;8.384;2023-08-21T08:21:06;101359.13;;;22.31;100.00
17383;BME280;8809;51.892;8.384;2023-08-21T08:23:34;101361.84;;;22.42;100.00
17383;BME280;8809;51.892;8.384;2023-08-21T08:26:02;101361.03;;;22.53;100.00
17383;BME280;8809;51.892;8.384;2023-08-21T08:28:29;101356.66;;;22.65;100.00
17383;BME280;8809;51.892;8.384;2023-08-21T08:30:57;101359.41;;;22.77;100.00
17383;BME280;8809;51.892;8.384;2023-08-21T08:33:26;101358.56;;;22.87;100.00
17383;BME280;8809;51.892;8.384;2023-08-21T08:35:55;101369.25;;;22.96;100.00
17383;BME280;8809;51.892;8.384;2023-08-21T08:38:22;101360.38;;;23.03;100.00
17383;BME280;8809;51.892;8.384;2023-08-21T08:40:51;101358.59;;;23.08;100.00
17383;BME280;8809;51.892;8.384;2023-08-21T08:43:21;101364.84;;;23.13;100.00
17383;BME280;8809;51.892;8.384;2023-08-21T08:45:50;101363.06;;;23.20;100.00
17383;BME280;8809;51.892;8.384;2023-08-21T08:48:20;101365.75;;;23.24;100.00
17383;BME280;8809;51.892;8.384;2023-08-21T08:50:50;101359.53;;;23.30;100.00
17383;BME280;8809;51.892;8.384;2023-08-21T08:53:20;101356.00;;;23.37;100.00
17383;BME280;8809;51.892;8.384;2023-08-21T08:55:48;101354.25;;;23.44;100.00
17383;BME280;8809;51.892;8.384;2023-08-21T08:58:16;101355.13;;;23.49;100.00
17383;BME280;8809;51.892;8.384;2023-08-21T09:00:43;101354.25;;;23.56;100.00
17383;BME280;8809;51.892;8.384;2023-08-21T09:03:11;101353.41;;;23.61;100.00
17383;BME280;8809;51.892;8.384;2023-08-21T09:05:39;101351.59;;;23.68;100.00
17383;BME280;8809;51.892;8.384;2023-08-21T09:08:11;101363.16;;;23.75;100.00
17383;BME280;8809;51.892;8.384;2023-08-21T09:10:41;101356.06;;;23.81;100.00
17383;BME280;8809;51.892;8.384;2023-08-21T09:13:10;101357.84;;;23.91;100.00
17383;BME280;8809;51.892;8.384;2023-08-21T09:15:38;101352.50;;;24.00;100.00
17383;BME280;8809;51.892;8.384;2023-08-21T09:18:08;101356.03;;;24.12;100.00
17383;BME280;8809;51.892;8.384;2023-08-21T09:20:36;101358.69;;;24.30;100.00
17383;BME280;8809;51.892;8.384;2023-08-21T09:23:04;101352.38;;;24.52;100.00
17383;BME280;8809;51.892;8.384;2023-08-21T09:25:35;101344.28;;;24.70;100.00
17383;BME280;8809;51.892;8.384;2023-08-21T09:28:08;101346.88;;;24.90;100.00
17383;BME280;8809;51.892;8.384;2023-08-21T09:30:52;101350.41;;;25.00;100.00
17383;BME280;8809;51.892;8.384;2023-08-21T09:33:21;101344.06;;;25.19;100.00
17383;BME280;8809;51.892;8.384;2023-08-21T09:35:52;101341.28;;;25.36;100.00
17383;BME280;8809;51.892;8.384;2023-08-21T09:38:20;101352.72;;;25.55;100.00
17383;BME280;8809;51.892;8.384;2023-08-21T09:40:51;101344.69;;;25.62;100.00
17383;BME280;8809;51.892;8.384;2023-08-21T09:43:21;101347.28;;;25.71;100.00
17383;BME280;8809;51.892;8.384;2023-08-21T09:45:52;101349.91;;;25.76;100.00
17383;BME280;8809;51.892;8.384;2023-08-21T09:48:22;101346.31;;;25.78;100.00
17383;BME280;8809;51.892;8.384;2023-08-21T09:50:50;101345.31;;;25.87;100.00
17383;BME280;8809;51.892;8.384;2023-08-21T09:53:19;101340.88;;;25.87;100.00
17383;BME280;8809;51.892;8.384;2023-08-21T09:55:47;101339.16;;;25.79;100.00
17383;BME280;8809;51.892;8.384;2023-08-21T09:58:17;101339.16;;;25.83;100.00
17383;BME280;8809;51.892;8.384;2023-08-21T10:00:49;101350.75;;;25.78;100.00
17383;BME280;8809;51.892;8.384;2023-08-21T10:03:18;101347.09;;;25.91;100.00
17383;BME280;8809;51.892;8.384;2023-08-21T10:05:47;101350.47;;;26.08;100.00
17383;BME280;8809;51.892;8.384;2023-08-21T10:08:16;101351.19;;;26.29;100.00
17383;BME280;8809;51.892;8.384;2023-08-21T10:10:45;101351.00;;;26.44;100.00
17383;BME280;8809;51.892;8.384;2023-08-21T10:13:13;101349.94;;;26.60;100.00
17383;BME280;8809;51.892;8.384;2023-08-21T10:15:42;101356.88;;;26.73;100.00
17383;BME280;8809;51.892;8.384;2023-08-21T10:18:22;101357.63;;;26.86;100.00
17383;BME280;8809;51.892;8.384;2023-08-21T10:20:50;101349.38;;;27.03;100.00
17383;BME280;8809;51.892;8.384;2023-08-21T10:23:28;101350.25;;;27.05;100.00
17383;BME280;8809;51.892;8.384;2023-08-21T10:25:56;101346.72;;;27.03;100.00
17383;BME280;8809;51.892;8.384;2023-08-21T10:28:24;101339.72;;;26.91;100.00
17383;BME280;8809;51.892;8.384;2023-08-21T10:30:51;101342.34;;;26.95;100.00
17383;BME280;8809;51.892;8.384;2023-08-21T10:33:47;101340.31;;;27.11;100.00
17383;BME280;8809;51.892;8.384;2023-08-21T10:36:14;101349.16;;;27.19;100.00
17383;BME280;8809;51.892;8.384;2023-08-21T10:39:00;101343.53;;;27.36;100.00
17383;BME280;8809;51.892;8.384;2023-08-21T10:41:28;101337.91;;;27.53;100.00
17383;BME280;8809;51.892;8.384;2023-08-21T10:43:57;101344.06;;;27.59;100.00
17383;BME280;8809;51.892;8.384;2023-08-21T10:46:26;101353.84;;;27.63;100.00
17383;BME280;8809;51.892;8.384;2023-08-21T10:48:55;101347.81;;;27.48;98.75
17383;BME280;8809;51.892;8.384;2023-08-21T10:51:22;101344.00;;;27.64;100.00
17383;BME280;8809;51.892;8.384;2023-08-21T10:53:50;101343.66;;;27.85;100.00
17383;BME280;8809;51.892;8.384;2023-08-21T10:56:17;101338.94;;;27.98;100.00
17383;BME280;8809;51.892;8.384;2023-08-21T10:58:44;101337.84;;;28.08;100.00
17383;BME280;8809;51.892;8.384;2023-08-21T11:01:13;101329.84;;;28.06;100.00
17383;BME280;8809;51.892;8.384;2023-08-21T11:03:45;101335.00;;;28.17;100.00
17383;BME280;8809;51.892;8.384;2023-08-21T11:06:18;101341.03;;;28.30;100.00
17383;BME280;8809;51.892;8.384;2023-08-21T11:08:46;101343.38;;;28.47;100.00
17383;BME280;8809;51.892;8.384;2023-08-21T11:11:13;101334.13;;;28.63;100.00
17383;BME280;8809;51.892;8.384;2023-08-21T11:13:52;101327.47;;;28.82;100.00
17383;BME280;8809;51.892;8.384;2023-08-21T11:16:20;101329.94;;;28.91;100.00
17383;BME280;8809;51.892;8.384;2023-08-21T11:18:47;101320.81;;;28.98;100.00
17383;BME280;8809;51.892;8.384;2023-08-21T11:21:16;101327.91;;;29.02;100.00
17383;BME280;8809;51.892;8.384;2023-08-21T11:23:43;101334.91;;;29.09;100.00
17383;BME280;8809;51.892;8.384;2023-08-21T11:26:11;101336.72;;;29.07;100.00
17383;BME280;8809;51.892;8.384;2023-08-21T11:28:39;101334.72;;;29.17;100.00
17383;BME280;8809;51.892;8.384;2023-08-21T11:31:07;101330.97;;;29.23;100.00
17383;BME280;8809;51.892;8.384;2023-08-21T11:33:37;101330.97;;;29.23;100.00
17383;BME280;8809;51.892;8.384;2023-08-21T11:36:07;101336.28;;;29.26;98.83
17383;BME280;8809;51.892;8.384;2023-08-21T11:38:36;101335.16;;;29.36;100.00
17383;BME280;8809;51.892;8.384;2023-08-21T11:41:05;101331.63;;;29.34;98.82
17383;BME280;8809;51.892;8.384;2023-08-21T11:43:36;101327.94;;;29.39;97.89
17383;BME280;8809;51.892;8.384;2023-08-21T11:46:05;101332.34;;;29.42;97.37
17383;BME280;8809;51.892;8.384;2023-08-21T11:48:33;101322.25;;;29.51;100.00
17383;BME280;8809;51.892;8.384;2023-08-21T11:51:00;101322.81;;;29.64;100.00
17383;BME280;8809;51.892;8.384;2023-08-21T11:53:37;101321.75;;;29.71;95.82
17383;BME280;8809;51.892;8.384;2023-08-21T11:56:09;101324.25;;;29.79;99.94
17383;BME280;8809;51.892;8.384;2023-08-21T11:58:38;101331.28;;;29.84;100.00
17383;BME280;8809;51.892;8.384;2023-08-21T12:01:06;101329.50;;;29.83;98.91
17383;BME280;8809;51.892;8.384;2023-08-21T12:03:37;101333.91;;;29.86;97.51
17383;BME280;8809;51.892;8.384;2023-08-21T12:06:06;101331.94;;;29.93;97.14
17383;BME280;8809;51.892;8.384;2023-08-21T12:08:35;101337.06;;;29.69;92.31
17383;BME280;8809;51.892;8.384;2023-08-21T12:11:03;101330.22;;;29.56;93.49
17383;BME280;8809;51.892;8.384;2023-08-21T12:13:31;101326.97;;;29.42;87.71
17383;BME280;8809;51.892;8.384;2023-08-21T12:15:58;101334.78;;;29.14;89.66
17383;BME280;8809;51.892;8.384;2023-08-21T12:18:25;101327.50;;;29.19;92.58
17383;BME280;8809;51.892;8.384;2023-08-21T12:20:53;101330.06;;;29.24;91.95
17383;BME280;8809;51.892;8.384;2023-08-21T12:23:20;101348.66;;;29.33;93.93
17383;BME280;8809;51.892;8.384;2023-08-21T12:25:49;101335.81;;;29.47;98.62
17383;BME280;8809;51.892;8.384;2023-08-21T12:28:17;101327.25;;;29.67;97.88
17383;BME280;8809;51.892;8.384;2023-08-21T12:30:44;101323.44;;;29.75;100.00
17383;BME280;8809;51.892;8.384;2023-08-21T12:33:12;101329.47;;;29.85;98.87
17383;BME280;8809;51.892;8.384;2023-08-21T12:35:40;101324.53;;;30.02;99.35
17383;BME280;8809;51.892;8.384;2023-08-21T12:38:11;101327.31;;;29.99;98.44
17383;BME280;8809;51.892;8.384;2023-08-21T12:40:39;101320.25;;;29.94;97.93
17383;BME280;8809;51.892;8.384;2023-08-21T12:43:08;101322.06;;;29.93;98.94
17383;BME280;8809;51.892;8.384;2023-08-21T12:45:36;101319.38;;;29.93;99.54
17383;BME280;8809;51.892;8.384;2023-08-21T12:48:06;101320.34;;;29.90;97.46
17383;BME280;8809;51.892;8.384;2023-08-21T12:50:34;101316.81;;;29.88;96.52
17383;BME280;8809;51.892;8.384;2023-08-21T12:53:05;101308.78;;;29.87;95.14
17383;BME280;8809;51.892;8.384;2023-08-21T12:55:32;101305.00;;;29.94;97.26